Time;durP1;ratioP1;P1;durP2;ratioP2;P2;SDS_P1;SDS_P2;PMS_P1;PMS_P2;Temp;Humidity;BMP_temperature;BMP_pressure;BME280_temperature;BME280_humidity;BME280_pressure;Samples;Min_cycle;Max_cycle;Signal;HPM_P1;HPM_P2
2022/12/26 00:00:22;;;;;;;23.15;10.48;;;;;;;4.46;100.00;94050.97;4993944;28;20064;-64
2022/12/26 00:02:49;;;;;;;23.13;9.75;;;;;;;4.39;100.00;94057.13;4991642;28;20038;-65
2022/12/26 00:05:15;;;;;;;21.35;9.35;;;;;;;4.31;100.00;94058.22;4993817;28;20124;-64
2022/12/26 00:07:42;;;;;;;20.05;8.40;;;;;;;4.25;100.00;94064.34;4993074;28;20388;-64
2022/12/26 00:10:09;;;;;;;22.73;9.15;;;;;;;4.15;100.00;94066.56;4992558;28;20047;-64
2022/12/26 00:12:36;;;;;;;30.30;9.95;;;;;;;4.06;100.00;94063.34;4993135;28;20190;-64
2022/12/26 00:15:03;;;;;;;23.10;9.70;;;;;;;4.08;100.00;94065.69;4993463;28;20046;-64
2022/12/26 00:17:29;;;;;;;27.75;10.70;;;;;;;4.10;100.00;94068.81;4990993;28;20042;-64
2022/12/26 00:19:56;;;;;;;47.00;9.53;;;;;;;4.08;100.00;94061.03;4984950;28;20729;-64
2022/12/26 00:22:23;;;;;;;71.70;9.43;;;;;;;3.90;100.00;94055.41;4993518;28;20246;-64
2022/12/26 00:24:49;;;;;;;90.47;10.73;;;;;;;3.78;100.00;94058.34;4992731;28;20042;-64
2022/12/26 00:27:16;;;;;;;95.88;10.93;;;;;;;3.75;100.00;94064.53;4993434;28;20081;-65
2022/12/26 00:29:43;;;;;;;40.53;8.25;;;;;;;3.71;100.00;94061.00;4992700;28;20050;-64
2022/12/26 00:32:09;;;;;;;22.08;8.90;;;;;;;3.70;100.00;94056.69;4992214;28;20430;-64
2022/12/26 00:34:37;;;;;;;40.90;16.85;;;;;;;3.73;100.00;94055.97;4992906;28;20101;-64
2022/12/26 00:37:03;;;;;;;34.30;11.73;;;;;;;3.75;100.00;94057.16;4992870;28;20120;-65
2022/12/26 00:39:30;;;;;;;27.33;8.52;;;;;;;3.82;100.00;94055.69;4993215;28;20046;-64
2022/12/26 00:41:57;;;;;;;34.35;9.38;;;;;;;3.81;100.00;94049.47;4992309;28;20829;-65
2022/12/26 00:44:23;;;;;;;22.27;8.80;;;;;;;3.79;100.00;94049.06;4993200;28;20042;-64
2022/12/26 00:46:50;;;;;;;20.40;7.68;;;;;;;3.80;100.00;94058.75;4992540;28;20424;-64
2022/12/26 00:49:17;;;;;;;16.92;7.63;;;;;;;3.76;100.00;94050.59;4992851;28;20402;-64
2022/12/26 00:51:44;;;;;;;38.67;11.95;;;;;;;3.72;100.00;94054.41;4992259;28;20054;-63
2022/12/26 00:54:10;;;;;;;42.88;13.77;;;;;;;3.62;100.00;94047.69;4992957;28;20084;-64
2022/12/26 00:56:37;;;;;;;32.60;10.93;;;;;;;3.64;100.00;94055.47;4992444;28;20042;-63
2022/12/26 00:59:04;;;;;;;53.42;14.85;;;;;;;3.61;100.00;94048.84;4992753;28;20046;-65
2022/12/26 01:01:31;;;;;;;32.17;11.20;;;;;;;3.58;100.00;94055.00;4991963;28;20406;-62
2022/12/26 01:03:58;;;;;;;20.75;8.57;;;;;;;3.57;100.00;94051.50;4992365;28;20511;-64
2022/12/26 01:06:25;;;;;;;20.33;8.80;;;;;;;3.58;100.00;94061.22;4992536;28;20100;-64
2022/12/26 01:08:52;;;;;;;19.40;8.25;;;;;;;3.58;100.00;94069.34;5004933;28;20404;-64
2022/12/26 01:11:38;;;;;;;20.20;8.63;;;;;;;3.59;100.00;94062.78;4992957;28;20400;-64
2022/12/26 01:14:08;;;;;;;20.17;8.63;;;;;;;3.66;100.00;94069.44;4991460;28;20821;-64
2022/12/26 01:16:36;;;;;;;19.98;8.25;;;;;;;3.76;100.00;94075.03;4992124;28;20431;-65
2022/12/26 01:19:04;;;;;;;23.25;9.65;;;;;;;3.86;100.00;94081.72;4992408;28;20479;-65
2022/12/26 01:21:31;;;;;;;20.43;8.63;;;;;;;3.98;100.00;94078.78;4992147;28;20047;-64
2022/12/26 01:23:58;;;;;;;28.77;10.55;;;;;;;3.94;100.00;94077.97;4992322;28;20046;-65
2022/12/26 01:26:25;;;;;;;23.15;9.82;;;;;;;4.05;100.00;94077.31;4992449;28;20069;-64
2022/12/26 01:28:52;;;;;;;23.90;9.85;;;;;;;4.06;100.00;94082.34;4991637;28;20046;-64
2022/12/26 01:31:20;;;;;;;23.83;9.60;;;;;;;4.03;100.00;94079.63;4992559;28;20076;-65
2022/12/26 01:33:47;;;;;;;23.73;9.90;;;;;;;4.09;100.00;94059.91;4991717;28;20042;-64
2022/12/26 01:36:15;;;;;;;26.58;11.25;;;;;;;4.09;100.00;94076.19;4992323;28;20054;-65
2022/12/26 01:38:42;;;;;;;32.95;14.25;;;;;;;4.20;100.00;94077.13;4991646;28;20046;-65
2022/12/26 01:41:16;;;;;;;31.25;12.45;;;;;;;4.20;100.00;94081.75;4991809;28;20092;-64
2022/12/26 01:44:01;;;;;;;34.83;13.30;;;;;;;4.18;100.00;94076.69;4991435;28;20092;-64
2022/12/26 01:46:41;;;;;;;25.90;10.60;;;;;;;4.22;100.00;94089.53;4980810;28;20056;-64
2022/12/26 01:49:15;;;;;;;34.05;12.88;;;;;;;4.25;100.00;94086.09;4990905;28;20799;-64
2022/12/26 01:51:46;;;;;;;36.10;14.52;;;;;;;4.26;100.00;94087.63;4991645;28;20427;-65
2022/12/26 01:54:13;;;;;;;27.55;11.35;;;;;;;4.24;100.00;94088.00;4991754;28;20092;-64
2022/12/26 01:57:05;;;;;;;32.92;13.50;;;;;;;4.23;100.00;94094.59;4990745;28;21284;-64
2022/12/26 01:59:36;;;;;;;32.20;12.33;;;;;;;4.31;100.00;94090.03;4991258;28;20046;-64
2022/12/26 02:02:03;;;;;;;24.40;9.85;;;;;;;4.27;100.00;94092.72;5006170;28;20043;-64
2022/12/26 02:07:24;;;;;;;25.55;10.15;;;;;;;4.28;100.00;94086.09;4990918;28;20338;-64
2022/12/26 02:09:51;;;;;;;34.70;13.18;;;;;;;4.30;100.00;94089.22;4990927;28;20497;-64
2022/12/26 02:12:28;;;;;;;46.80;15.10;;;;;;;4.24;100.00;94096.16;4991808;28;20057;-64
2022/12/26 02:15:11;;;;;;;31.48;11.30;;;;;;;4.26;100.00;94091.13;4990239;28;20050;-64
2022/12/26 02:17:39;;;;;;;32.15;12.10;;;;;;;4.29;100.00;94103.22;4990867;28;20042;-64
2022/12/26 02:20:08;;;;;;;27.85;11.30;;;;;;;4.24;100.00;94093.44;4990977;28;20069;-64
2022/12/26 02:22:57;;;;;;;25.38;10.60;;;;;;;4.21;100.00;94088.75;4989989;28;20053;-64
2022/12/26 02:25:39;;;;;;;37.20;14.33;;;;;;;4.22;100.00;94087.59;4991238;28;20057;-64
2022/12/26 02:28:32;;;;;;;33.70;12.52;;;;;;;4.27;100.00;94098.13;4989953;28;20640;-64
2022/12/26 02:31:34;;;;;;;27.98;10.40;;;;;;;4.34;100.00;94102.88;4989968;28;20685;-64
2022/12/26 02:34:07;;;;;;;32.22;13.15;;;;;;;4.33;100.00;94104.03;4988625;28;20047;-64
2022/12/26 02:36:59;;;;;;;29.58;12.60;;;;;;;4.29;100.00;94106.69;4990830;28;20046;-64
2022/12/26 02:39:28;;;;;;;26.70;11.83;;;;;;;4.28;100.00;94102.41;4991245;28;20108;-64
2022/12/26 02:42:29;;;;;;;22.35;10.18;;;;;;;4.31;100.00;94100.91;4989963;28;20042;-64
2022/12/26 02:48:40;;;;;;;18.67;8.50;;;;;;;4.28;100.00;94107.84;4989852;28;20828;-64
2022/12/26 03:14:59;;;;;;;20.05;8.93;;;;;;;4.14;100.00;94097.59;4997725;28;20096;-64
2022/12/26 03:17:34;;;;;;;23.02;8.63;;;;;;;4.18;100.00;94089.47;4993841;28;20054;-64
2022/12/26 03:20:07;;;;;;;21.98;9.38;;;;;;;4.19;100.00;94102.69;4989339;28;20739;-65
2022/12/26 03:22:40;;;;;;;20.57;8.77;;;;;;;4.22;100.00;94109.31;5002986;28;20120;-64
2022/12/26 03:28:14;;;;;;;20.92;8.40;;;;;;;4.22;100.00;94089.53;4979618;28;20132;-64
2022/12/26 03:30:50;;;;;;;22.23;8.63;;;;;;;4.20;100.00;94089.91;5004909;28;20039;-65
2022/12/26 03:36:10;;;;;;;20.00;8.40;;;;;;;4.25;100.00;94102.38;4989426;28;20714;-65
2022/12/26 03:38:56;;;;;;;24.58;11.13;;;;;;;4.28;100.00;94099.69;4989755;28;20056;-64
2022/12/26 04:20:18;;;;;;;25.43;9.60;;;;;;;4.63;100.00;94092.28;4989569;28;20657;-65
2022/12/26 04:46:19;;;;;;;22.50;9.73;;;;;;;4.68;100.00;94095.47;4992160;28;20701;-65
2022/12/26 04:51:35;;;;;;;24.30;9.63;;;;;;;4.75;100.00;94092.03;4983136;28;20108;-64
2022/12/26 04:54:02;;;;;;;24.98;10.27;;;;;;;4.74;100.00;94093.97;4992555;28;20097;-64
2022/12/26 04:56:29;;;;;;;23.75;10.15;;;;;;;4.74;100.00;94093.97;4992992;28;20116;-64
2022/12/26 04:58:56;;;;;;;23.70;10.07;;;;;;;4.74;100.00;94095.91;4992456;28;20297;-64
2022/12/26 05:09:52;;;;;;;41.53;16.60;;;;;;;4.77;100.00;94090.50;4992592;28;20046;-65
2022/12/26 05:12:19;;;;;;;27.48;10.95;;;;;;;4.77;100.00;94093.22;4992569;28;20050;-64
2022/12/26 05:14:46;;;;;;;25.10;10.20;;;;;;;4.76;100.00;94094.38;4992231;28;20038;-64
2022/12/26 05:28:40;;;;;;;20.13;7.63;;;;;;;4.78;100.00;94094.78;4987443;28;20197;-65
2022/12/26 05:31:16;;;;;;;22.27;9.00;;;;;;;4.79;100.00;94103.75;4991053;28;20364;-64
2022/12/26 05:36:41;;;;;;;26.98;10.27;;;;;;;4.85;100.00;94115.03;4992443;28;20043;-64
2022/12/26 05:39:08;;;;;;;24.98;10.32;;;;;;;4.88;100.00;94104.19;4990070;28;21578;-65
2022/12/26 05:41:35;;;;;;;24.73;9.80;;;;;;;4.96;100.00;94105.06;4991688;28;20038;-64
2022/12/26 05:44:03;;;;;;;23.23;9.40;;;;;;;4.88;100.00;94103.41;4991860;28;20043;-65
2022/12/26 05:46:30;;;;;;;24.00;9.93;;;;;;;4.92;100.00;94102.28;4991961;28;20042;-64
2022/12/26 05:48:57;;;;;;;25.67;10.20;;;;;;;4.93;100.00;94100.34;4991202;28;20957;-64
2022/12/26 05:51:24;;;;;;;28.33;11.57;;;;;;;4.90;100.00;94098.38;4991669;28;20043;-64
2022/12/26 05:53:51;;;;;;;30.13;11.90;;;;;;;4.98;100.00;94102.72;4991420;28;20447;-64
2022/12/26 05:56:18;;;;;;;28.50;11.23;;;;;;;5.02;100.00;94100.81;5006702;28;20080;-64
2022/12/26 05:58:46;;;;;;;25.92;11.02;;;;;;;5.05;100.00;94089.22;4991484;28;20392;-65
2022/12/26 06:01:17;;;;;;;31.13;12.05;;;;;;;5.10;100.00;94088.06;4991205;28;20498;-64
2022/12/26 06:03:49;;;;;;;47.63;16.67;;;;;;;5.11;100.00;94089.63;4991203;28;20056;-64
2022/12/26 06:06:16;;;;;;;33.30;14.50;;;;;;;5.08;100.00;94082.22;4991555;28;20042;-64
2022/12/26 06:08:45;;;;;;;25.95;10.52;;;;;;;5.18;100.00;94092.41;4991373;28;20054;-64
2022/12/26 06:11:12;;;;;;;31.92;12.10;;;;;;;5.22;100.00;94084.28;4991058;28;20044;-64
2022/12/26 06:13:40;;;;;;;28.23;11.13;;;;;;;5.24;100.00;94092.84;4991243;28;20073;-64
2022/12/26 06:16:10;;;;;;;32.80;12.82;;;;;;;5.30;100.00;94094.84;4991222;28;20043;-64
2022/12/26 06:18:37;;;;;;;28.33;11.67;;;;;;;5.32;100.00;94097.97;4991015;28;20508;-64
2022/12/26 06:21:07;;;;;;;26.55;11.30;;;;;;;5.29;100.00;94096.00;4991048;28;20042;-64
2022/12/26 06:23:34;;;;;;;27.05;11.45;;;;;;;5.31;100.00;94101.84;4991133;28;20513;-65
2022/12/26 06:26:01;;;;;;;26.40;10.95;;;;;;;5.41;100.00;94097.63;4991423;28;20395;-64
2022/12/26 06:28:28;;;;;;;25.83;11.63;;;;;;;5.45;100.00;94087.53;4990884;28;20048;-64
2022/12/26 06:31:02;;;;;;;26.13;11.73;;;;;;;5.40;100.00;94082.47;4991113;28;20537;-64
2022/12/26 06:33:28;;;;;;;28.10;11.15;;;;;;;5.52;100.00;94081.38;5001606;28;20044;-64
2022/12/26 06:36:05;;;;;;;30.63;12.40;;;;;;;5.48;100.00;94081.34;4993425;28;20403;-65
2022/12/26 06:38:32;;;;;;;27.33;11.75;;;;;;;5.49;100.00;94077.47;4990764;28;20050;-62
2022/12/26 06:40:59;;;;;;;29.70;11.55;;;;;;;5.45;100.00;94067.72;4991004;28;20549;-64
2022/12/26 06:43:26;;;;;;;27.97;11.93;;;;;;;5.42;100.00;94068.50;4991022;28;20042;-65
2022/12/26 06:45:55;;;;;;;29.17;12.50;;;;;;;5.36;100.00;94071.56;4990535;28;20046;-65
2022/12/26 06:48:21;;;;;;;28.75;11.60;;;;;;;5.39;100.00;94075.44;4990813;28;20050;-65
2022/12/26 06:50:48;;;;;;;27.17;11.20;;;;;;;5.43;100.00;94078.22;4990390;28;20038;-64
2022/12/26 06:53:15;;;;;;;26.05;10.70;;;;;;;5.43;100.00;94073.53;4990497;28;20046;-65
2022/12/26 06:55:42;;;;;;;24.40;10.43;;;;;;;5.49;100.00;94065.81;4990794;28;20046;-64
2022/12/26 06:58:09;;;;;;;25.05;10.18;;;;;;;5.53;100.00;94067.41;5002727;28;20051;-64
2022/12/26 07:00:36;;;;;;;23.13;10.52;;;;;;;5.45;100.00;94057.59;4990593;28;20106;-64
2022/12/26 07:03:03;;;;;;;26.70;12.07;;;;;;;5.40;100.00;94063.41;4990574;28;20050;-64
2022/12/26 07:05:30;;;;;;;30.95;14.38;;;;;;;5.42;100.00;94073.94;4990573;28;20057;-65
2022/12/26 07:07:56;;;;;;;30.63;13.07;;;;;;;5.51;100.00;94069.69;4989834;28;20352;-64
2022/12/26 07:10:23;;;;;;;29.10;11.85;;;;;;;5.43;100.00;94068.09;4990372;28;20381;-65
2022/12/26 07:12:50;;;;;;;34.60;12.85;;;;;;;5.46;100.00;94072.03;4990225;28;20056;-64
2022/12/26 07:15:16;;;;;;;28.80;11.25;;;;;;;5.49;100.00;94077.47;4990405;28;20167;-65
2022/12/26 07:17:43;;;;;;;43.90;20.83;;;;;;;5.53;100.00;94067.41;5003056;28;20533;-64
2022/12/26 07:20:10;;;;;;;30.20;12.97;;;;;;;5.45;100.00;94059.56;4989133;28;20065;-64
2022/12/26 07:22:37;;;;;;;31.50;13.98;;;;;;;5.48;100.00;94075.91;4992175;28;20598;-65
2022/12/26 07:25:04;;;;;;;28.98;12.15;;;;;;;5.46;100.00;94075.50;4999706;28;20042;-65
2022/12/26 07:27:31;;;;;;;26.40;11.93;;;;;;;5.58;100.00;94068.97;4990206;28;20054;-64
2022/12/26 07:29:57;;;;;;;73.93;37.17;;;;;;;5.59;100.00;94071.34;4989400;28;20657;-65
2022/12/26 07:32:25;;;;;;;59.33;32.07;;;;;;;5.51;100.00;94066.97;4990059;28;20046;-65
2022/12/26 07:34:52;;;;;;;32.08;14.32;;;;;;;5.59;100.00;94068.59;4989901;28;20061;-64
2022/12/26 07:37:18;;;;;;;29.92;14.18;;;;;;;5.70;100.00;94073.34;4989833;28;20054;-63
2022/12/26 07:39:45;;;;;;;27.73;11.82;;;;;;;5.56;100.00;94082.97;4990379;28;20046;-64
2022/12/26 07:42:12;;;;;;;27.55;12.40;;;;;;;5.68;100.00;94072.94;4994106;28;20413;-64
2022/12/26 07:44:38;;;;;;;26.80;12.30;;;;;;;5.70;100.00;94074.09;4993936;28;20085;-65
2022/12/26 07:47:05;;;;;;;31.13;13.88;;;;;;;5.72;100.00;94079.19;4994093;28;20050;-65
2022/12/26 07:49:32;;;;;;;26.20;13.05;;;;;;;5.80;100.00;94087.00;4993406;28;20042;-64
2022/12/26 07:51:58;;;;;;;27.50;11.93;;;;;;;5.97;100.00;94073.88;4994195;28;20066;-64
2022/12/26 07:54:27;;;;;;;23.90;11.35;;;;;;;5.96;100.00;94084.00;4993827;28;20038;-64
2022/12/26 07:56:54;;;;;;;25.53;12.57;;;;;;;6.10;100.00;94074.34;4993707;28;20096;-64
2022/12/26 07:59:41;;;;;;;27.60;12.85;;;;;;;6.27;100.00;94070.88;4992993;28;20068;-64
2022/12/26 08:02:09;;;;;;;26.15;13.15;;;;;;;6.36;100.00;94065.88;4994012;28;20054;-64
2022/12/26 08:04:37;;;;;;;29.75;13.07;;;;;;;6.27;100.00;94073.63;4993541;28;20104;-64
2022/12/26 08:07:03;;;;;;;27.23;13.25;;;;;;;6.31;100.00;94082.59;4993780;28;20054;-65
2022/12/26 08:09:30;;;;;;;26.83;12.80;;;;;;;6.45;100.00;94072.91;4993745;28;20422;-65
2022/12/26 08:11:57;;;;;;;28.02;13.15;;;;;;;6.45;100.00;94070.94;4992936;28;21817;-64
2022/12/26 08:14:24;;;;;;;29.15;13.85;;;;;;;6.29;100.00;94065.84;4993658;28;20092;-64
2022/12/26 08:16:50;;;;;;;27.25;12.77;;;;;;;6.37;100.00;94074.81;5008252;28;20399;-65
2022/12/26 08:19:19;;;;;;;25.50;13.05;;;;;;;6.50;100.00;94069.78;4993177;28;20042;-64
2022/12/26 08:21:46;;;;;;;25.63;12.30;;;;;;;6.56;100.00;94062.78;4993358;28;20057;-65
2022/12/26 08:24:13;;;;;;;26.90;13.32;;;;;;;6.62;100.00;94064.00;4993447;28;20391;-64
2022/12/26 08:26:40;;;;;;;25.73;13.82;;;;;;;6.66;100.00;94064.78;4993213;28;20046;-64
2022/12/26 08:29:09;;;;;;;24.60;12.80;;;;;;;6.85;100.00;94065.59;4993517;28;20053;-64
2022/12/26 08:31:35;;;;;;;25.50;11.73;;;;;;;7.14;100.00;94069.09;4992576;28;20042;-65
2022/12/26 08:34:02;;;;;;;24.80;12.83;;;;;;;7.23;100.00;94068.72;4993517;28;20034;-64
2022/12/26 08:36:29;;;;;;;21.52;10.98;;;;;;;7.28;100.00;94065.59;4993241;28;20050;-64
2022/12/26 08:38:57;;;;;;;22.27;11.23;;;;;;;7.34;100.00;94066.75;4992716;28;20433;-64
2022/12/26 08:41:24;;;;;;;20.52;10.88;;;;;;;7.50;100.00;94080.00;4992888;28;20483;-64
2022/12/26 08:43:52;;;;;;;19.77;10.68;;;;;;;7.85;100.00;94081.94;4992341;28;20215;-64
2022/12/26 08:46:38;;;;;;;18.43;9.87;;;;;;;8.38;100.00;94077.44;4992493;28;20046;-64
2022/12/26 08:49:05;;;;;;;18.88;10.50;;;;;;;8.39;100.00;94082.53;4992819;28;20050;-64
2022/12/26 08:51:32;;;;;;;19.10;9.82;;;;;;;7.96;100.00;94088.13;4991348;28;20043;-63
2022/12/26 08:53:58;;;;;;;20.58;11.38;;;;;;;8.02;100.00;94083.03;4992049;28;20057;-64
2022/12/26 08:56:27;;;;;;;32.28;16.17;;;;;;;7.71;100.00;94084.69;4991355;28;20458;-64
2022/12/26 08:58:54;;;;;;;21.20;11.50;;;;;;;7.55;100.00;94091.31;4992458;28;20053;-64
2022/12/26 09:01:30;;;;;;;19.73;10.90;;;;;;;7.63;100.00;94086.66;4992474;28;20042;-64
2022/12/26 09:04:00;;;;;;;20.25;10.43;;;;;;;8.07;100.00;94090.03;4992009;28;20782;-64
2022/12/26 09:06:28;;;;;;;23.30;11.88;;;;;;;8.11;100.00;94099.81;4992667;28;20100;-64
2022/12/26 09:08:55;;;;;;;27.20;12.63;;;;;;;8.03;100.00;94095.53;4991097;28;20046;-64
2022/12/26 09:11:26;;;;;;;21.27;11.40;;;;;;;8.01;100.00;94097.91;4992239;28;20043;-64
2022/12/26 09:13:55;;;;;;;20.77;11.25;;;;;;;7.63;100.00;94092.09;4992682;28;20042;-64
2022/12/26 09:16:25;;;;;;;19.58;11.00;;;;;;;8.00;100.00;94102.56;4978565;28;20034;-64
2022/12/26 09:18:55;;;;;;;19.75;11.02;;;;;;;8.18;100.00;94107.22;4992091;28;20055;-64
2022/12/26 09:21:22;;;;;;;21.40;11.68;;;;;;;8.15;100.00;94106.06;4985470;28;20328;-64
2022/12/26 09:23:54;;;;;;;19.30;10.50;;;;;;;8.03;100.00;94111.13;4992270;28;20050;-64
2022/12/26 09:26:21;;;;;;;20.00;11.05;;;;;;;8.12;100.00;94122.44;4997692;28;20044;-64
2022/12/26 09:28:48;;;;;;;21.17;11.52;;;;;;;8.02;100.00;94126.00;4998931;28;20046;-64
2022/12/26 09:31:19;;;;;;;24.02;12.77;;;;;;;8.00;100.00;94131.84;4991896;28;20043;-63
2022/12/26 09:33:46;;;;;;;22.33;12.82;;;;;;;8.04;100.00;94134.59;4991809;28;20046;-64
2022/12/26 09:36:18;;;;;;;21.37;12.13;;;;;;;8.00;100.00;94151.75;4997073;28;20046;-65
2022/12/26 09:38:46;;;;;;;20.42;11.45;;;;;;;7.99;100.00;94158.41;4997334;28;20130;-66
2022/12/26 09:41:41;;;;;;;20.98;10.90;;;;;;;7.98;100.00;94158.78;4992182;28;20073;-65
2022/12/26 09:44:20;;;;;;;20.58;11.00;;;;;;;7.94;100.00;94161.53;4991336;28;20765;-65
2022/12/26 09:47:26;;;;;;;19.58;10.00;;;;;;;7.57;100.00;94151.03;4991474;28;20042;-66
2022/12/26 09:49:59;;;;;;;19.67;10.57;;;;;;;7.59;100.00;94148.69;4980773;28;20050;-64
2022/12/26 09:52:46;;;;;;;20.92;10.45;;;;;;;7.67;100.00;94146.75;4991461;28;20038;-63
2022/12/26 09:55:38;;;;;;;23.83;11.90;;;;;;;7.97;100.00;94143.59;4991163;28;20046;-64
2022/12/26 09:58:28;;;;;;;13.77;6.75;;;;;;;7.76;100.00;94145.16;4990575;28;20256;-65
2022/12/26 10:01:00;;;;;;;16.83;8.65;;;;;;;7.97;100.00;94151.78;4991321;28;20042;-64
2022/12/26 10:03:27;;;;;;;21.37;9.80;;;;;;;8.13;100.00;94156.81;4991426;28;20039;-64
2022/12/26 10:06:08;;;;;;;21.80;11.02;;;;;;;8.25;100.00;94161.06;4990249;28;20378;-64
2022/12/26 10:08:52;;;;;;;23.08;12.80;;;;;;;8.06;100.00;94167.78;4990767;28;20415;-65
2022/12/26 10:11:24;;;;;;;24.45;12.75;;;;;;;8.20;100.00;94163.03;4991433;28;20100;-65
2022/12/26 10:14:08;;;;;;;18.35;10.07;;;;;;;8.00;100.00;94168.16;5006039;28;20177;-65
2022/12/26 10:17:00;;;;;;;17.60;9.83;;;;;;;8.01;100.00;94166.22;4987260;28;20084;-64
2022/12/26 10:19:53;;;;;;;21.08;11.43;;;;;;;8.10;100.00;94168.53;4994213;28;20049;-65
2022/12/26 10:22:27;;;;;;;19.50;11.00;;;;;;;7.77;100.00;94163.13;4990233;28;20452;-65
2022/12/26 10:24:58;;;;;;;22.67;11.57;;;;;;;8.27;100.00;94170.47;4990474;28;20377;-64
2022/12/26 10:27:29;;;;;;;25.98;14.32;;;;;;;8.51;100.00;94184.47;4990909;28;20076;-65
2022/12/26 10:30:04;;;;;;;24.53;12.67;;;;;;;8.59;100.00;94173.13;4990735;28;20046;-65
2022/12/26 10:32:40;;;;;;;21.52;12.13;;;;;;;9.29;100.00;94166.91;4979345;28;20046;-65
2022/12/26 10:35:43;;;;;;;24.88;13.68;;;;;;;8.69;100.00;94185.22;4990468;28;20666;-65
2022/12/26 10:38:39;;;;;;;19.52;10.70;;;;;;;8.67;100.00;94181.28;4967956;28;20153;-65
2022/12/26 10:41:24;;;;;;;12.55;6.43;;;;;;;8.70;100.00;94180.50;4990051;28;21510;-64
2022/12/26 10:43:51;;;;;;;10.27;5.53;;;;;;;8.81;100.00;94175.75;4990380;28;20046;-65
2022/12/26 10:46:38;;;;;;;14.00;7.65;;;;;;;8.85;100.00;94187.47;4977930;28;20507;-64
2022/12/26 10:49:12;;;;;;;10.75;5.05;;;;;;;8.74;100.00;94192.22;4989799;28;20931;-65
2022/12/26 10:51:39;;;;;;;8.15;4.30;;;;;;;8.78;100.00;94193.75;4990223;28;20050;-65
2022/12/26 10:54:16;;;;;;;8.15;4.43;;;;;;;8.74;100.00;94193.00;4990768;28;20406;-65
2022/12/26 10:56:45;;;;;;;8.77;4.13;;;;;;;8.83;100.00;94200.78;4990081;28;20092;-64
2022/12/26 10:59:18;;;;;;;6.28;3.70;;;;;;;8.63;100.00;94216.09;4990623;28;20095;-64
2022/12/26 11:01:46;;;;;;;8.52;4.50;;;;;;;8.62;100.00;94212.59;4999729;28;20050;-65
2022/12/26 11:04:24;;;;;;;10.32;4.38;;;;;;;8.64;100.00;94225.88;4993399;28;20049;-65
2022/12/26 11:07:11;;;;;;;40.38;18.73;;;;;;;8.58;100.00;94230.97;4989873;28;20604;-64
2022/12/26 11:09:41;;;;;;;10.83;6.00;;;;;;;8.62;100.00;94226.28;4977267;28;20046;-64
2022/12/26 11:12:29;;;;;;;8.50;4.30;;;;;;;8.52;100.00;94233.31;4990553;28;20079;-64
2022/12/26 11:14:59;;;;;;;6.93;3.47;;;;;;;8.48;100.00;94231.78;4989513;28;20068;-64
2022/12/26 11:17:41;;;;;;;7.43;3.53;;;;;;;8.62;100.00;94245.41;4990210;28;20495;-65
2022/12/26 11:20:21;;;;;;;8.68;5.65;;;;;;;8.70;100.00;94243.44;4989491;28;21671;-65
2022/12/26 11:22:48;;;;;;;10.73;6.27;;;;;;;8.63;100.00;94236.03;4989890;28;20035;-64
2022/12/26 11:25:26;;;;;;;5.68;3.10;;;;;;;8.83;100.00;94238.31;4992827;28;20046;-63
2022/12/26 11:27:55;;;;;;;7.30;3.80;;;;;;;8.65;100.00;94239.13;4990006;28;20046;-63
2022/12/26 11:30:29;;;;;;;5.20;2.92;;;;;;;8.61;100.00;94230.16;4990080;28;20051;-63
2022/12/26 11:33:26;;;;;;;5.10;3.20;;;;;;;8.35;100.00;94223.16;4989918;28;20050;-64
2022/12/26 11:36:03;;;;;;;6.57;3.37;;;;;;;8.48;100.00;94220.84;4990184;28;20050;-64
2022/12/26 11:38:36;;;;;;;5.00;3.00;;;;;;;8.54;100.00;94224.72;5000811;28;20100;-64
2022/12/26 11:41:31;;;;;;;6.05;2.70;;;;;;;8.33;100.00;94209.09;4989828;28;20811;-64
2022/12/26 11:44:09;;;;;;;3.95;2.15;;;;;;;8.63;100.00;94216.09;4989586;28;20732;-64
2022/12/26 11:46:50;;;;;;;4.25;2.10;;;;;;;8.29;100.00;94222.81;4977045;28;20046;-64
2022/12/26 11:49:23;;;;;;;7.47;4.10;;;;;;;8.56;100.00;94220.41;4990243;28;20054;-64
2022/12/26 11:51:52;;;;;;;3.47;1.70;;;;;;;8.57;100.00;94218.44;4989656;28;20039;-65
2022/12/26 11:54:29;;;;;;;4.70;2.30;;;;;;;8.54;100.00;94222.75;4990186;28;20044;-65
2022/12/26 11:57:17;;;;;;;3.03;1.65;;;;;;;8.71;100.00;94203.94;4998196;28;20046;-65
2022/12/26 11:59:45;;;;;;;3.78;2.08;;;;;;;8.63;100.00;94205.16;4990809;28;20047;-65
2022/12/26 12:02:14;;;;;;;3.30;1.60;;;;;;;8.47;100.00;94194.66;4989929;28;20046;-65
2022/12/26 12:04:42;;;;;;;3.60;2.10;;;;;;;8.38;100.00;94198.53;4989178;28;20042;-65
2022/12/26 12:07:28;;;;;;;3.92;1.75;;;;;;;8.41;100.00;94210.69;4990059;28;20088;-65
2022/12/26 12:10:03;;;;;;;4.22;1.70;;;;;;;8.43;100.00;94208.34;5002576;28;20069;-65
2022/12/26 12:13:13;;;;;;;4.50;2.55;;;;;;;8.00;100.00;94208.38;4989764;28;20042;-65
2022/12/26 12:15:51;;;;;;;4.03;1.93;;;;;;;8.01;100.00;94218.16;4977095;28;21661;-65
2022/12/26 12:18:37;;;;;;;2.42;1.10;;;;;;;8.20;100.00;94209.50;4989408;28;20046;-65
2022/12/26 12:21:19;;;;;;;2.63;1.33;;;;;;;8.41;100.00;94210.69;5003987;28;21845;-65
2022/12/26 12:24:22;;;;;;;2.42;1.10;;;;;;;8.14;100.00;94218.50;4989421;28;20054;-65
2022/12/26 12:27:07;;;;;;;3.40;1.90;;;;;;;8.39;100.00;94223.94;4977727;28;20046;-66
2022/12/26 12:29:52;;;;;;;2.87;1.10;;;;;;;8.43;100.00;94224.75;4992568;28;20046;-66
2022/12/26 12:32:36;;;;;;;3.28;1.70;;;;;;;7.98;100.00;94221.66;4993528;28;20096;-65
2022/12/26 12:35:17;;;;;;;3.08;1.55;;;;;;;7.92;100.00;94231.41;5007466;28;20038;-66
2022/12/26 12:37:47;;;;;;;3.47;1.70;;;;;;;7.93;100.00;94231.03;4992368;28;20046;-65
2022/12/26 12:40:30;;;;;;;3.30;1.65;;;;;;;7.93;100.00;94231.03;4993142;28;20042;-65
2022/12/26 12:43:13;;;;;;;3.80;1.57;;;;;;;7.84;100.00;94227.91;4997091;28;20538;-65
2022/12/26 12:45:47;;;;;;;2.17;0.90;;;;;;;7.87;100.00;94212.66;4998554;28;20042;-66
2022/12/26 12:48:20;;;;;;;2.67;0.90;;;;;;;7.77;100.00;94217.75;4993140;28;20042;-66
2022/12/26 12:50:52;;;;;;;2.08;0.77;;;;;;;7.82;100.00;94215.81;4992271;28;20388;-65
2022/12/26 12:54:15;;;;;;;2.80;1.30;;;;;;;7.89;100.00;94224.00;4993140;28;20042;-66
2022/12/26 12:57:18;;;;;;;7.33;3.13;;;;;;;7.83;100.00;94228.28;4964846;28;20042;-65
2022/12/26 12:59:58;;;;;;;3.15;1.25;;;;;;;7.86;100.00;94231.03;4991971;28;20043;-65
2022/12/26 13:02:24;;;;;;;2.28;1.00;;;;;;;7.82;100.00;94221.25;4992944;28;20479;-65
2022/12/26 13:05:03;;;;;;;2.90;1.10;;;;;;;7.73;100.00;94214.25;4992041;28;20052;-65
2022/12/26 13:07:36;;;;;;;2.28;0.95;;;;;;;7.84;100.00;94229.84;4991312;28;20096;-64
2022/12/26 13:10:33;;;;;;;2.97;1.53;;;;;;;7.79;100.00;94217.38;4990689;28;20050;-64
2022/12/26 13:13:20;;;;;;;2.13;0.98;;;;;;;7.61;100.00;94214.63;4990682;28;20585;-65
2022/12/26 13:15:51;;;;;;;3.72;1.25;;;;;;;7.63;100.00;94214.25;4992455;28;20038;-65
2022/12/26 13:18:28;;;;;;;4.68;1.23;;;;;;;7.59;100.00;94208.78;5004209;28;20398;-64
2022/12/26 13:21:02;;;;;;;2.30;0.95;;;;;;;7.42;100.00;94206.78;4992246;28;20064;-65
2022/12/26 13:26:43;;;;;;;1.60;0.70;;;;;;;7.34;100.00;94208.72;4990600;28;20039;-64
2022/12/26 13:29:24;;;;;;;2.13;0.93;;;;;;;7.22;100.00;94206.38;4992320;28;20046;-64
2022/12/26 13:31:51;;;;;;;3.42;1.20;;;;;;;7.31;100.00;94213.03;4991404;28;20092;-64
2022/12/26 13:34:19;;;;;;;3.70;1.13;;;;;;;7.38;100.00;94217.69;4992329;28;20044;-64
2022/12/26 13:36:48;;;;;;;4.53;2.80;;;;;;;7.40;100.00;94218.91;4991497;28;20068;-64
2022/12/26 13:39:26;;;;;;;2.25;0.95;;;;;;;7.34;100.00;94217.69;4991594;28;20112;-64
2022/12/26 13:45:41;;;;;;;2.10;1.10;;;;;;;7.26;100.00;94226.25;4991203;28;20583;-65
2022/12/26 13:48:11;;;;;;;1.67;0.70;;;;;;;7.11;100.00;94200.88;4991201;28;21607;-64
2022/12/26 13:50:47;;;;;;;4.23;1.50;;;;;;;7.08;100.00;94194.25;5006051;28;20068;-64
2022/12/26 13:53:24;;;;;;;4.00;2.05;;;;;;;7.02;100.00;94211.38;5005920;28;20109;-65
2022/12/26 13:56:15;;;;;;;1.92;1.00;;;;;;;7.08;100.00;94215.28;4990881;28;20065;-65
2022/12/26 13:58:57;;;;;;;3.28;1.58;;;;;;;7.14;100.00;94206.38;4980588;28;20410;-64